Share

Gettysburg, SD (57442)

7:32 AM CDT on April 23, 2014 (GMT -0500)
KSDHOVEN2 Elev 1877 ft | 45.24 °N, 99.78 °W | Change Station

Current weather conditions updated 2 minutes ago

Partly Cloudy
Partly Cloudy
48.0 °F
Feels Like 43 °F
N
12.8
Wind Variable Wind from South
Gusts 17.4 mph
Sunrise 6:41 AM
Sunset 8:35 PM
Moon Last Quarter

Today is forecast to be nearly the same temperature as yesterday. Afternoon showers.

Pressure 29.56 in
Visibility 10.0 miles
Clouds Few 12000 ft
Windchill 43 °F
Dew Point 32 °F
Humidity 53%
Rainfall 0.08 in
Snow Depth Not available.
UV 0 out of 16
Pollen 9.40 out of 12
Air Quality Not available.
Flu Activity Sporadic
METAR KMBG 231152Z AUTO 13015KT 10SM FEW120 10/04 A2956 RMK AO2 PK WND 14032/1125 RAB06E31 SLP009 P0000 60001 70001 T01000039 10144 20100 58007

More Conditions Fewer Conditions

Pressure 29.56 in
Visibility 10.0 miles
Clouds Few 12000 ft
Windchill 43 °F
Dew Point 32 °F
Humidity 53%
Rainfall 0.08 in
Snow Depth Not available.
UV 0 out of 16
Pollen 9.40 out of 12
Air Quality Not available.
Flu Activity Sporadic
METAR KMBG 231152Z AUTO 13015KT 10SM FEW120 10/04 A2956 RMK AO2 PK WND 14032/1125 RAB06E31 SLP009 P0000 60001 70001 T01000039 10144 20100 58007

More Conditions Fewer Conditions

10-Day Weather Forecast

Almanac

Astronomy

Apr. 23, 2014 Rise Set
Actual Time 6:41 AM CDT 8:35 PM CDT
Civil Twilight 6:10 AM CDT 9:07 PM CDT
Nautical Twilight 5:31 AM CDT 9:45 PM CDT
Astronomical Twilight 4:49 AM CDT 10:28 PM CDT
Moon 3:30 AM CDT 2:30 PM CDT
Length of Visible Light 14h 57m
Length of Day
13h 54m
Tomorrow will be 2m 53s longer.
Last Quarter, 36% of the Moon is Illuminated
Today
Last Quarter
Apr 29
New
May 6
First Quarter
May 14
Full
May 21
Last Quarter

Today's Extremes

State Highs State Lows

Community

  • April Sunset
    April Sunset
  • Waiting..
    Waiting..
  • Sunset...
    Sunset...
  • Happy outdoor day
    Happy outdoor day
  • mystic afternoon....
    mystic afternoon....

WunderPhotos

Upload Photos

1,704,257 photos uploaded!

Nearby

Snow Depth

Station Depth Elevation
North Rapid Creek 12 in 6130 ft
Blind Park 13 in 6890 ft

Coastal Water Temperatures

Place Temperature
No Stations Reporting

Earthquake Activity

City Distance Mag. Time & Date
No recent earthquake activity has been reported nearby.
Minimum magnitude displayed is 2.5.

Nearby Weather Stations

Station Location Temp. Windchill Dew Point Humidity Wind Precip. Elev Updated Type
NonFedAWOS GETTYSBURG , Gettysburg, SD 52 °F - 39 °F 62% ESE  at  20 mph 0.00 in / hr 2061 ft 5:55 AM CDT MADIS
Hoven, SD 48.0 °F 43 °F 32 °F 53% South  at  12.8 mph 0.04 in / hr 1877 ft 7:30 AM CDT Normal
NonFedAWOS ONIDAMUNC , Onida, SD 54 °F - 34 °F 47% East  at  24 mph 0.00 in / hr 1874 ft 6:35 AM CDT MADIS

Show More Stations Show Fewer Stations

What do you think?

We're not finished. Please let us know what you like, what you don't like, and what you are still missing.